Time;durP1;ratioP1;P1;durP2;ratioP2;P2;SDS_P1;SDS_P2;PMS_P1;PMS_P2;Temp;Humidity;BMP_temperature;BMP_pressure;BME280_temperature;BME280_humidity;BME280_pressure;Samples;Min_cycle;Max_cycle;Signal;HPM_P1;HPM_P2
2021/05/10 00:01:27;;;;;;;5.07;1.80;;;;;;;;;;5133339;27;20076;-70
2021/05/10 00:03:54;;;;;;;2.65;1.98;;;;;;;;;;5134471;27;20106;-70
2021/05/10 00:06:20;;;;;;;2.40;1.50;;;;;;;;;;5134244;27;20050;-70
2021/05/10 00:08:47;;;;;;;3.03;1.50;;;;;;;;;;5138031;27;20455;-70
2021/05/10 00:11:14;;;;;;;4.32;1.75;;;;;;;;;;5133141;27;20415;-70
2021/05/10 00:13:41;;;;;;;2.65;1.60;;;;;;;;;;5132678;27;20115;-70
2021/05/10 00:16:08;;;;;;;2.20;1.27;;;;;;;;;;5133383;27;20053;-70
2021/05/10 00:18:34;;;;;;;2.60;1.63;;;;;;;;;;5133920;27;20054;-70
2021/05/10 00:21:01;;;;;;;4.05;1.52;;;;;;;;;;5133302;27;20419;-70
2021/05/10 00:23:27;;;;;;;2.33;1.45;;;;;;;;;;5133827;27;20047;-70
2021/05/10 00:25:53;;;;;;;2.78;1.90;;;;;;;;;;5133886;27;20395;-70
2021/05/10 00:28:19;;;;;;;3.35;1.70;;;;;;;;;;5134059;27;20066;-70
2021/05/10 00:30:45;;;;;;;3.97;1.60;;;;;;;;;;5134556;27;20039;-70
2021/05/10 00:33:11;;;;;;;2.78;1.85;;;;;;;;;;5133770;27;20050;-70
2021/05/10 00:35:37;;;;;;;2.65;1.85;;;;;;;;;;5134323;27;20464;-70
2021/05/10 00:38:04;;;;;;;2.95;1.63;;;;;;;;;;5133541;27;20089;-70
2021/05/10 00:40:31;;;;;;;2.13;1.42;;;;;;;;;;5133916;27;20498;-71
2021/05/10 00:42:58;;;;;;;2.78;1.52;;;;;;;;;;5132602;27;20049;-70
2021/05/10 00:45:25;;;;;;;3.80;1.95;;;;;;;;;;5133414;27;20043;-70
2021/05/10 00:47:51;;;;;;;3.63;1.70;;;;;;;;;;5133606;27;20502;-70
2021/05/10 00:50:17;;;;;;;2.55;1.85;;;;;;;;;;5133032;27;20043;-70
2021/05/10 00:52:43;;;;;;;2.83;1.70;;;;;;;;;;5127478;27;20052;-69
2021/05/10 00:55:12;;;;;;;2.30;1.60;;;;;;;;;;5121813;27;20394;-70
2021/05/10 00:57:41;;;;;;;2.58;1.83;;;;;;;;;;5132514;27;20404;-69
2021/05/10 01:00:11;;;;;;;2.97;1.45;;;;;;;;;;5133445;27;20055;-69
2021/05/10 01:02:37;;;;;;;2.22;1.42;;;;;;;;;;5131954;28;20043;-69
2021/05/10 01:05:04;;;;;;;3.10;1.73;;;;;;;;;;5133548;28;20043;-69
2021/05/10 01:07:31;;;;;;;2.38;1.48;;;;;;;;;;5133243;28;20066;-69
2021/05/10 01:09:57;;;;;;;5.28;1.48;;;;;;;;;;5133438;28;20047;-69
2021/05/10 01:12:24;;;;;;;2.15;1.23;;;;;;;;;;5132539;28;20070;-69
2021/05/10 01:14:50;;;;;;;3.03;2.00;;;;;;;;;;5132817;27;20062;-69
2021/05/10 01:17:16;;;;;;;4.13;1.85;;;;;;;;;;5132946;28;20418;-70
2021/05/10 01:19:42;;;;;;;3.83;1.80;;;;;;;;;;5133082;28;20055;-70
2021/05/10 01:22:08;;;;;;;2.63;1.50;;;;;;;;;;5132201;28;20049;-70
2021/05/10 01:24:35;;;;;;;2.00;1.58;;;;;;;;;;5132849;28;20423;-70
2021/05/10 01:27:01;;;;;;;2.88;1.55;;;;;;;;;;5133055;27;20043;-70
2021/05/10 01:29:27;;;;;;;3.22;1.98;;;;;;;;;;5133417;28;20047;-70
2021/05/10 01:31:53;;;;;;;3.33;1.92;;;;;;;;;;5132389;28;20501;-70
2021/05/10 01:34:19;;;;;;;3.25;1.80;;;;;;;;;;5133316;28;20138;-70
2021/05/10 01:36:45;;;;;;;5.55;1.77;;;;;;;;;;5133311;28;20568;-70
2021/05/10 01:39:12;;;;;;;4.45;1.60;;;;;;;;;;5133304;28;20043;-70
2021/05/10 01:41:39;;;;;;;2.53;1.55;;;;;;;;;;5132084;28;20043;-69
2021/05/10 01:44:05;;;;;;;4.38;2.00;;;;;;;;;;5132498;28;20054;-69
2021/05/10 01:46:31;;;;;;;2.70;1.80;;;;;;;;;;5133000;28;20043;-69
2021/05/10 01:48:57;;;;;;;3.90;1.67;;;;;;;;;;5133527;28;20508;-70
2021/05/10 01:51:23;;;;;;;2.75;1.73;;;;;;;;;;5132102;28;20044;-69
2021/05/10 01:53:49;;;;;;;2.80;1.67;;;;;;;;;;5125744;28;20051;-70
2021/05/10 01:56:16;;;;;;;4.20;1.75;;;;;;;;;;5132699;27;20039;-70
2021/05/10 01:58:50;;;;;;;2.30;1.58;;;;;;;;;;5133372;28;20080;-70
2021/05/10 02:01:16;;;;;;;3.67;1.70;;;;;;;;;;5131063;28;20047;-70
2021/05/10 02:03:42;;;;;;;3.83;1.88;;;;;;;;;;5132866;28;20091;-69
2021/05/10 02:06:08;;;;;;;3.00;1.67;;;;;;;;;;5133089;27;20138;-69
2021/05/10 02:08:34;;;;;;;4.65;1.80;;;;;;;;;;5136222;27;20401;-70
2021/05/10 02:11:00;;;;;;;5.43;1.70;;;;;;;;;;5135625;27;20095;-69
2021/05/10 02:13:26;;;;;;;4.43;1.80;;;;;;;;;;5136278;27;20491;-69
2021/05/10 02:15:54;;;;;;;4.82;2.08;;;;;;;;;;5135920;27;20051;-69
2021/05/10 02:18:21;;;;;;;3.08;2.05;;;;;;;;;;5136593;27;20069;-70
2021/05/10 02:20:48;;;;;;;2.00;1.50;;;;;;;;;;5136007;27;20047;-70
2021/05/10 02:23:16;;;;;;;4.00;1.80;;;;;;;;;;5136180;27;20050;-69
2021/05/10 02:25:44;;;;;;;2.90;1.95;;;;;;;;;;5136522;27;20472;-70
2021/05/10 02:28:11;;;;;;;2.80;1.65;;;;;;;;;;5136146;27;20051;-70
2021/05/10 02:30:38;;;;;;;5.97;2.00;;;;;;;;;;5136212;27;20376;-70
2021/05/10 02:33:07;;;;;;;3.00;1.88;;;;;;;;;;5135600;27;20047;-70
2021/05/10 02:35:33;;;;;;;4.95;1.50;;;;;;;;;;5135978;27;20047;-70
2021/05/10 02:38:00;;;;;;;4.57;2.05;;;;;;;;;;5135592;27;20104;-70
2021/05/10 02:40:26;;;;;;;2.67;1.73;;;;;;;;;;5136191;27;20554;-70
2021/05/10 02:42:52;;;;;;;3.63;2.72;;;;;;;;;;5135126;27;20050;-70
2021/05/10 02:45:18;;;;;;;2.75;1.50;;;;;;;;;;5135712;27;20043;-70
2021/05/10 02:47:45;;;;;;;4.90;1.80;;;;;;;;;;5135638;27;20562;-70
2021/05/10 02:50:14;;;;;;;2.60;1.58;;;;;;;;;;5135985;27;20058;-69
2021/05/10 02:52:40;;;;;;;2.92;1.48;;;;;;;;;;5134672;27;20092;-69
2021/05/10 02:55:07;;;;;;;2.17;1.50;;;;;;;;;;5120723;27;20071;-70
2021/05/10 02:57:33;;;;;;;2.95;1.70;;;;;;;;;;5118278;27;20046;-70
2021/05/10 02:59:59;;;;;;;2.22;1.67;;;;;;;;;;5135894;27;20043;-70
2021/05/10 03:02:25;;;;;;;3.17;1.60;;;;;;;;;;5134666;27;20043;-70
2021/05/10 03:04:51;;;;;;;3.92;2.40;;;;;;;;;;5135692;27;20441;-70
2021/05/10 03:07:18;;;;;;;3.50;1.85;;;;;;;;;;5134965;27;20547;-70
2021/05/10 03:09:44;;;;;;;2.95;1.88;;;;;;;;;;5135121;27;20392;-70
2021/05/10 03:12:10;;;;;;;4.20;1.60;;;;;;;;;;5134301;27;20055;-70
2021/05/10 03:14:37;;;;;;;3.70;1.80;;;;;;;;;;5135834;27;20051;-70
2021/05/10 03:17:03;;;;;;;3.05;1.63;;;;;;;;;;5134776;27;20044;-70
2021/05/10 03:19:29;;;;;;;3.63;1.80;;;;;;;;;;5134661;27;20058;-70
2021/05/10 03:21:54;;;;;;;4.18;1.90;;;;;;;;;;5134607;27;20047;-70
2021/05/10 03:24:21;;;;;;;5.70;1.88;;;;;;;;;;5135172;27;20086;-70
2021/05/10 03:26:47;;;;;;;4.25;1.92;;;;;;;;;;5135074;27;20479;-70
2021/05/10 03:29:13;;;;;;;5.10;2.20;;;;;;;;;;5135351;27;20100;-70
2021/05/10 03:31:39;;;;;;;4.28;2.10;;;;;;;;;;5134150;27;20047;-70
2021/05/10 03:34:05;;;;;;;4.35;2.10;;;;;;;;;;5135067;27;20047;-69
2021/05/10 03:36:32;;;;;;;3.05;1.67;;;;;;;;;;5134313;27;20041;-69
2021/05/10 03:38:58;;;;;;;4.03;1.90;;;;;;;;;;5135373;27;20099;-69
2021/05/10 03:41:24;;;;;;;4.10;2.22;;;;;;;;;;5133863;27;20556;-69
2021/05/10 03:43:51;;;;;;;4.15;2.15;;;;;;;;;;5135035;27;20051;-70
2021/05/10 03:46:17;;;;;;;3.45;1.80;;;;;;;;;;5133974;27;20051;-70
2021/05/10 03:48:43;;;;;;;4.57;1.73;;;;;;;;;;5134793;27;20104;-70
2021/05/10 03:51:09;;;;;;;2.60;1.73;;;;;;;;;;5134409;27;20078;-70
2021/05/10 03:53:35;;;;;;;3.75;1.90;;;;;;;;;;5134353;27;20483;-70
2021/05/10 03:56:01;;;;;;;3.53;1.92;;;;;;;;;;5126717;27;20061;-70
2021/05/10 03:58:28;;;;;;;4.80;1.90;;;;;;;;;;5135014;27;20569;-70
2021/05/10 04:00:54;;;;;;;3.30;2.13;;;;;;;;;;5133964;27;20487;-70
2021/05/10 04:03:22;;;;;;;4.30;1.98;;;;;;;;;;5134319;27;20125;-70
2021/05/10 04:06:07;;;;;;;10.18;2.80;;;;;;;;;;5134145;27;20048;-68
2021/05/10 04:08:53;;;;;;;3.53;1.90;;;;;;;;;;5122453;27;20043;-69
2021/05/10 04:13:34;;;;;;;2.92;1.95;;;;;;;;;;5132494;27;20171;-71
2021/05/10 04:14:17;;;;;;;2.85;2.00;;;;;;;;;;5113117;28;20051;-68
2021/05/10 04:16:43;;;;;;;3.42;1.73;;;;;;;;;;5131998;27;20054;-68
2021/05/10 04:19:09;;;;;;;3.17;1.42;;;;;;;;;;5133453;27;20043;-70
2021/05/10 04:21:35;;;;;;;2.78;1.70;;;;;;;;;;5132549;27;20053;-70
2021/05/10 04:24:02;;;;;;;3.58;1.95;;;;;;;;;;5133978;27;20047;-71
2021/05/10 04:26:28;;;;;;;5.25;2.10;;;;;;;;;;5133363;27;20053;-70
2021/05/10 04:28:53;;;;;;;8.68;2.30;;;;;;;;;;5133492;27;20047;-70
2021/05/10 04:31:20;;;;;;;6.60;2.30;;;;;;;;;;5133081;27;20047;-70
2021/05/10 04:33:46;;;;;;;3.50;1.88;;;;;;;;;;5134390;27;20051;-70
2021/05/10 04:36:12;;;;;;;2.85;1.88;;;;;;;;;;5132985;27;20066;-70
2021/05/10 04:38:42;;;;;;;3.65;2.08;;;;;;;;;;5133234;27;20046;-70
2021/05/10 04:41:08;;;;;;;3.40;2.08;;;;;;;;;;5132342;27;20078;-72
2021/05/10 04:43:34;;;;;;;8.43;2.42;;;;;;;;;;5133513;27;20053;-70
2021/05/10 04:46:00;;;;;;;3.65;1.88;;;;;;;;;;5132053;27;20469;-70
2021/05/10 04:48:27;;;;;;;5.07;2.30;;;;;;;;;;5132936;27;20051;-69
2021/05/10 04:50:53;;;;;;;4.15;2.00;;;;;;;;;;5132830;27;20051;-70
2021/05/10 04:53:19;;;;;;;3.38;1.58;;;;;;;;;;5133163;27;20096;-70
2021/05/10 04:55:45;;;;;;;2.92;1.88;;;;;;;;;;5128859;27;20047;-70
2021/05/10 04:58:11;;;;;;;3.30;1.88;;;;;;;;;;5114363;27;20058;-70
2021/05/10 05:00:37;;;;;;;3.30;1.77;;;;;;;;;;5131535;27;20087;-70
2021/05/10 05:03:03;;;;;;;5.47;2.08;;;;;;;;;;5131009;27;20396;-70
2021/05/10 05:05:30;;;;;;;3.33;1.85;;;;;;;;;;5131481;27;20088;-69
2021/05/10 05:07:56;;;;;;;3.90;1.70;;;;;;;;;;5131682;28;20058;-69
2021/05/10 05:10:22;;;;;;;4.72;2.20;;;;;;;;;;5131959;28;20673;-69
2021/05/10 05:12:49;;;;;;;3.63;2.13;;;;;;;;;;5131634;28;20423;-70
2021/05/10 05:15:16;;;;;;;3.40;2.03;;;;;;;;;;5133483;28;20051;-70
2021/05/10 05:17:42;;;;;;;3.47;2.10;;;;;;;;;;5132682;28;20475;-69
2021/05/10 05:20:10;;;;;;;2.95;2.08;;;;;;;;;;5133357;28;20081;-69
2021/05/10 05:22:37;;;;;;;3.97;1.58;;;;;;;;;;5132607;28;20051;-69
2021/05/10 05:25:04;;;;;;;4.60;1.70;;;;;;;;;;5133134;28;20058;-69
2021/05/10 05:27:30;;;;;;;3.33;1.50;;;;;;;;;;5132770;28;20050;-70
2021/05/10 05:29:56;;;;;;;4.03;2.00;;;;;;;;;;5132761;28;20079;-69
2021/05/10 05:32:23;;;;;;;3.83;1.80;;;;;;;;;;5131560;28;20078;-70
2021/05/10 05:34:49;;;;;;;4.63;2.05;;;;;;;;;;5132359;28;20051;-70
2021/05/10 05:37:15;;;;;;;5.57;3.15;;;;;;;;;;5131763;28;20047;-70
2021/05/10 05:39:42;;;;;;;5.53;2.10;;;;;;;;;;5133039;28;20047;-70
2021/05/10 05:42:08;;;;;;;4.68;2.05;;;;;;;;;;5133025;27;20047;-69
2021/05/10 05:44:36;;;;;;;3.88;2.03;;;;;;;;;;5137460;27;20050;-69
2021/05/10 05:47:04;;;;;;;3.55;1.85;;;;;;;;;;5136235;27;20406;-69
2021/05/10 05:49:31;;;;;;;3.95;1.85;;;;;;;;;;5136668;27;20061;-69
2021/05/10 05:51:57;;;;;;;4.78;1.88;;;;;;;;;;5135114;27;20080;-68
2021/05/10 05:54:23;;;;;;;3.50;2.05;;;;;;;;;;5136274;27;20043;-69
2021/05/10 05:56:50;;;;;;;3.83;1.90;;;;;;;;;;5127874;27;20454;-68
2021/05/10 05:59:16;;;;;;;7.50;2.95;;;;;;;;;;5126451;27;20055;-69
2021/05/10 06:01:42;;;;;;;8.07;3.03;;;;;;;;;;5134860;27;20384;-69
2021/05/10 06:04:08;;;;;;;5.90;2.90;;;;;;;;;;5135912;27;20051;-68
2021/05/10 06:06:34;;;;;;;7.63;3.92;;;;;;;;;;5135252;27;20035;-68
2021/05/10 06:09:04;;;;;;;5.15;3.17;;;;;;;;;;5135222;27;20464;-68
2021/05/10 06:11:30;;;;;;;6.25;2.42;;;;;;;;;;5131589;27;20047;-69
2021/05/10 06:13:57;;;;;;;4.70;1.88;;;;;;;;;;5135617;27;20107;-68
2021/05/10 06:16:26;;;;;;;6.85;2.03;;;;;;;;;;5134940;27;20039;-68
2021/05/10 06:18:52;;;;;;;5.25;2.53;;;;;;;;;;5135325;27;20043;-68
2021/05/10 06:21:19;;;;;;;4.25;1.65;;;;;;;;;;5132158;27;20043;-68
2021/05/10 06:23:45;;;;;;;4.55;1.98;;;;;;;;;;5136381;27;20065;-68
2021/05/10 06:26:11;;;;;;;4.90;2.15;;;;;;;;;;5135944;27;20082;-68
2021/05/10 06:28:37;;;;;;;4.80;2.00;;;;;;;;;;5136314;27;20054;-69
2021/05/10 06:31:05;;;;;;;3.60;2.13;;;;;;;;;;5136986;27;20128;-69
2021/05/10 06:33:31;;;;;;;4.80;2.38;;;;;;;;;;5132263;27;20381;-69
2021/05/10 06:35:57;;;;;;;2.88;2.03;;;;;;;;;;5134624;27;20071;-68
2021/05/10 06:38:23;;;;;;;3.38;1.80;;;;;;;;;;5136184;27;20147;-68
2021/05/10 06:40:49;;;;;;;5.97;2.00;;;;;;;;;;5134858;27;20055;-68
2021/05/10 06:43:15;;;;;;;5.75;2.53;;;;;;;;;;5134852;27;20039;-68
2021/05/10 06:45:41;;;;;;;5.00;2.15;;;;;;;;;;5135607;27;20126;-68
2021/05/10 06:48:08;;;;;;;6.60;2.38;;;;;;;;;;5134528;27;20479;-69
2021/05/10 06:50:34;;;;;;;4.10;1.90;;;;;;;;;;5135806;27;20047;-69
2021/05/10 06:53:00;;;;;;;4.93;1.80;;;;;;;;;;5135079;27;20051;-69
2021/05/10 06:55:26;;;;;;;5.40;2.22;;;;;;;;;;5135296;27;20051;-69
2021/05/10 06:57:52;;;;;;;6.20;2.45;;;;;;;;;;5127542;27;20048;-69
2021/05/10 07:00:18;;;;;;;3.55;2.22;;;;;;;;;;5118080;27;20419;-69
2021/05/10 07:02:44;;;;;;;4.80;1.83;;;;;;;;;;5134506;27;20047;-69
2021/05/10 07:05:12;;;;;;;5.53;1.98;;;;;;;;;;5135418;27;20381;-69
2021/05/10 07:07:38;;;;;;;3.20;1.80;;;;;;;;;;5135084;27;20154;-69
2021/05/10 07:10:05;;;;;;;3.67;1.88;;;;;;;;;;5135359;27;20055;-69
2021/05/10 07:12:31;;;;;;;4.88;1.75;;;;;;;;;;5134823;27;20463;-69
2021/05/10 07:14:57;;;;;;;6.72;2.10;;;;;;;;;;5136661;27;20055;-69
2021/05/10 07:17:23;;;;;;;4.18;1.63;;;;;;;;;;5134338;27;20127;-69
2021/05/10 07:19:49;;;;;;;4.63;1.50;;;;;;;;;;5134344;27;20059;-69
2021/05/10 07:22:16;;;;;;;3.95;2.00;;;;;;;;;;5133796;27;20099;-69
2021/05/10 07:24:42;;;;;;;2.97;1.65;;;;;;;;;;5134752;27;20043;-70
2021/05/10 07:27:08;;;;;;;3.83;1.48;;;;;;;;;;5134613;27;20039;-69
2021/05/10 07:29:35;;;;;;;5.65;1.60;;;;;;;;;;5134338;27;20050;-69
2021/05/10 07:32:01;;;;;;;4.65;1.60;;;;;;;;;;5133497;27;20046;-69
2021/05/10 07:34:29;;;;;;;5.85;2.08;;;;;;;;;;5129683;27;20042;-69
2021/05/10 07:36:54;;;;;;;6.20;1.58;;;;;;;;;;5132444;27;20531;-70
2021/05/10 07:39:21;;;;;;;4.70;1.65;;;;;;;;;;5133495;27;20115;-70
2021/05/10 07:41:47;;;;;;;3.00;1.40;;;;;;;;;;5131329;27;20483;-69
2021/05/10 07:44:13;;;;;;;5.13;1.80;;;;;;;;;;5131978;27;20043;-69
2021/05/10 07:46:39;;;;;;;4.28;1.58;;;;;;;;;;5133841;27;20035;-69
2021/05/10 07:49:06;;;;;;;3.10;1.20;;;;;;;;;;5133778;27;20510;-70
2021/05/10 07:51:32;;;;;;;3.65;1.27;;;;;;;;;;5133297;27;20403;-70
2021/05/10 07:53:58;;;;;;;5.53;1.58;;;;;;;;;;5133990;27;20055;-70
2021/05/10 07:56:26;;;;;;;2.97;1.50;;;;;;;;;;5133767;27;20078;-69
2021/05/10 07:58:54;;;;;;;4.40;1.60;;;;;;;;;;5129752;27;20073;-70
2021/05/10 08:01:20;;;;;;;7.07;1.80;;;;;;;;;;5120717;27;20415;-70
2021/05/10 08:03:47;;;;;;;6.22;1.83;;;;;;;;;;5133815;27;20043;-70
2021/05/10 08:06:13;;;;;;;3.08;1.42;;;;;;;;;;5132978;27;20061;-70
2021/05/10 08:08:39;;;;;;;2.28;1.20;;;;;;;;;;5133450;27;20403;-70
2021/05/10 08:11:06;;;;;;;3.72;1.20;;;;;;;;;;5133631;27;20130;-70
2021/05/10 08:13:33;;;;;;;2.33;1.30;;;;;;;;;;5133839;27;20055;-69
2021/05/10 08:15:59;;;;;;;2.45;1.17;;;;;;;;;;5133941;27;20047;-69
2021/05/10 08:18:25;;;;;;;5.97;1.45;;;;;;;;;;5133683;27;20617;-70
2021/05/10 08:20:56;;;;;;;2.90;1.17;;;;;;;;;;5133529;27;20108;-70
2021/05/10 08:23:22;;;;;;;2.97;1.20;;;;;;;;;;5132446;27;20054;-69
2021/05/10 08:25:49;;;;;;;3.80;1.38;;;;;;;;;;5133914;27;20047;-70
2021/05/10 08:28:15;;;;;;;2.72;1.20;;;;;;;;;;5133228;27;20047;-69
2021/05/10 08:30:42;;;;;;;3.63;1.35;;;;;;;;;;5133674;27;20049;-69
2021/05/10 08:33:08;;;;;;;6.55;1.58;;;;;;;;;;5133017;27;20050;-69
2021/05/10 08:35:34;;;;;;;3.42;1.50;;;;;;;;;;5133692;27;20058;-70
2021/05/10 08:38:01;;;;;;;5.45;1.38;;;;;;;;;;5133794;27;20051;-69
2021/05/10 08:40:27;;;;;;;5.55;1.08;;;;;;;;;;5133532;27;20104;-69
2021/05/10 08:42:53;;;;;;;2.63;1.05;;;;;;;;;;5132801;27;20570;-69
2021/05/10 08:45:20;;;;;;;6.97;1.52;;;;;;;;;;5134140;27;20047;-69
2021/05/10 08:47:47;;;;;;;2.85;1.20;;;;;;;;;;5133467;27;20043;-69
2021/05/10 08:50:13;;;;;;;4.78;1.17;;;;;;;;;;5132780;27;20047;-69
2021/05/10 08:52:40;;;;;;;3.88;1.20;;;;;;;;;;5130056;27;20092;-70
2021/05/10 08:55:07;;;;;;;3.72;1.00;;;;;;;;;;5131289;27;20491;-70
2021/05/10 08:57:33;;;;;;;2.33;1.00;;;;;;;;;;5130365;27;20047;-70
2021/05/10 08:59:59;;;;;;;3.70;1.02;;;;;;;;;;5126766;27;20047;-70
2021/05/10 09:02:33;;;;;;;2.25;1.13;;;;;;;;;;5130100;27;20062;-70
2021/05/10 09:05:11;;;;;;;2.83;1.15;;;;;;;;;;5131704;27;20060;-70
2021/05/10 09:07:37;;;;;;;5.13;1.20;;;;;;;;;;5130165;27;20175;-70
2021/05/10 09:10:05;;;;;;;3.42;1.30;;;;;;;;;;5132348;27;20134;-69
2021/05/10 09:12:42;;;;;;;2.60;1.25;;;;;;;;;;5129301;28;20402;-69
2021/05/10 09:15:23;;;;;;;4.10;1.30;;;;;;;;;;5131548;28;20055;-70
2021/05/10 09:17:50;;;;;;;2.63;1.08;;;;;;;;;;5136880;27;20047;-71
2021/05/10 09:20:20;;;;;;;2.90;1.15;;;;;;;;;;5145641;27;20093;-70
2021/05/10 09:22:47;;;;;;;1.42;1.00;;;;;;;;;;5140601;27;20054;-70
2021/05/10 09:25:13;;;;;;;3.50;1.05;;;;;;;;;;5145151;27;20452;-70
2021/05/10 09:27:39;;;;;;;3.63;1.77;;;;;;;;;;5139208;27;20043;-70
2021/05/10 09:30:13;;;;;;;4.85;1.15;;;;;;;;;;5140380;27;20039;-70
2021/05/10 09:32:39;;;;;;;4.65;1.10;;;;;;;;;;5141056;27;20468;-70
2021/05/10 09:35:21;;;;;;;3.58;1.35;;;;;;;;;;5145777;27;20035;-70
2021/05/10 09:38:01;;;;;;;3.08;1.40;;;;;;;;;;5145664;27;20043;-70
2021/05/10 09:40:31;;;;;;;2.20;1.00;;;;;;;;;;5136682;27;20143;-69
2021/05/10 09:42:59;;;;;;;2.95;1.15;;;;;;;;;;5141481;27;20080;-69
2021/05/10 09:45:29;;;;;;;3.38;1.20;;;;;;;;;;5140148;27;20043;-69
2021/05/10 09:48:09;;;;;;;1.90;1.15;;;;;;;;;;5141272;27;20051;-69
2021/05/10 09:50:39;;;;;;;4.63;1.20;;;;;;;;;;5143788;27;20039;-69
2021/05/10 09:53:07;;;;;;;5.65;1.50;;;;;;;;;;5141999;27;20096;-69
2021/05/10 09:55:47;;;;;;;4.30;1.30;;;;;;;;;;5146086;27;20053;-69
2021/05/10 09:58:13;;;;;;;1.98;1.38;;;;;;;;;;5142740;27;20039;-69
2021/05/10 10:00:40;;;;;;;2.33;1.02;;;;;;;;;;5138998;27;20051;-69
2021/05/10 10:03:22;;;;;;;4.40;1.38;;;;;;;;;;5137883;27;20456;-69
2021/05/10 10:05:51;;;;;;;2.70;1.27;;;;;;;;;;5134748;27;20054;-69
2021/05/10 10:08:18;;;;;;;5.10;1.70;;;;;;;;;;5135967;27;20043;-69
2021/05/10 10:10:44;;;;;;;3.72;1.00;;;;;;;;;;5135257;27;20039;-69
2021/05/10 10:13:10;;;;;;;5.00;1.10;;;;;;;;;;5141157;27;20058;-69
2021/05/10 10:15:36;;;;;;;5.93;1.50;;;;;;;;;;5143326;27;20061;-71
2021/05/10 10:18:03;;;;;;;7.00;1.55;;;;;;;;;;5142625;27;20479;-67
2021/05/10 10:20:30;;;;;;;3.50;1.10;;;;;;;;;;5136437;27;20058;-68
2021/05/10 10:22:57;;;;;;;2.40;1.45;;;;;;;;;;5135677;27;20043;-69
2021/05/10 10:25:23;;;;;;;3.88;1.23;;;;;;;;;;5136407;27;20047;-69
2021/05/10 10:27:50;;;;;;;2.85;1.15;;;;;;;;;;5134399;27;20050;-68
2021/05/10 10:30:17;;;;;;;3.28;0.95;;;;;;;;;;5135551;27;20047;-70
2021/05/10 10:32:44;;;;;;;2.05;1.02;;;;;;;;;;5135446;27;20047;-69
2021/05/10 10:35:11;;;;;;;5.70;1.50;;;;;;;;;;5136587;27;20051;-69
2021/05/10 10:37:37;;;;;;;3.47;1.38;;;;;;;;;;5135452;27;20467;-69
2021/05/10 10:40:15;;;;;;;3.83;1.50;;;;;;;;;;5138192;27;20567;-69
2021/05/10 10:42:41;;;;;;;3.45;1.02;;;;;;;;;;5138148;27;20062;-69
2021/05/10 10:45:11;;;;;;;3.28;1.08;;;;;;;;;;5135224;27;20489;-69
2021/05/10 10:47:43;;;;;;;3.22;1.05;;;;;;;;;;5134392;27;20126;-69
2021/05/10 10:50:11;;;;;;;4.13;1.42;;;;;;;;;;5134905;27;20043;-69
2021/05/10 10:52:48;;;;;;;2.83;1.10;;;;;;;;;;5135291;27;20556;-69
2021/05/10 10:55:17;;;;;;;2.58;0.90;;;;;;;;;;5135980;27;20043;-69
2021/05/10 10:57:44;;;;;;;3.25;1.10;;;;;;;;;;5135499;27;20054;-69
2021/05/10 11:00:13;;;;;;;2.45;0.90;;;;;;;;;;5140758;27;20413;-69
2021/05/10 11:02:42;;;;;;;2.38;1.15;;;;;;;;;;5128091;27;20525;-69
2021/05/10 11:05:09;;;;;;;3.47;1.27;;;;;;;;;;5133420;27;20047;-69
2021/05/10 11:07:57;;;;;;;2.72;1.00;;;;;;;;;;5134257;27;20043;-69
2021/05/10 11:10:59;;;;;;;1.85;1.15;;;;;;;;;;5136367;27;20042;-69
2021/05/10 11:13:38;;;;;;;2.65;1.13;;;;;;;;;;5050358;28;20521;-70
2021/05/10 11:16:06;;;;;;;3.38;0.90;;;;;;;;;;5048895;28;20512;-69
2021/05/10 11:18:37;;;;;;;3.30;1.30;;;;;;;;;;5102202;27;20133;-70
2021/05/10 11:21:04;;;;;;;1.77;1.08;;;;;;;;;;5141207;27;20092;-70
2021/05/10 11:23:35;;;;;;;4.13;1.30;;;;;;;;;;5143400;27;20043;-70
2021/05/10 11:26:03;;;;;;;2.75;1.00;;;;;;;;;;5144983;27;20042;-70
2021/05/10 11:28:46;;;;;;;1.98;1.08;;;;;;;;;;5140378;27;20054;-70
2021/05/10 11:31:14;;;;;;;3.33;1.20;;;;;;;;;;5140079;27;20077;-70
2021/05/10 11:34:02;;;;;;;3.40;0.82;;;;;;;;;;5130167;27;20059;-70
2021/05/10 11:36:30;;;;;;;3.15;1.10;;;;;;;;;;5123182;27;20460;-70
2021/05/10 11:38:58;;;;;;;2.28;1.00;;;;;;;;;;5130338;27;20058;-71
2021/05/10 11:41:28;;;;;;;3.15;1.08;;;;;;;;;;5131261;27;20065;-71
2021/05/10 11:43:57;;;;;;;2.92;1.00;;;;;;;;;;5133627;27;20468;-70
2021/05/10 11:46:39;;;;;;;3.53;1.40;;;;;;;;;;5132788;27;20084;-70
2021/05/10 11:49:06;;;;;;;1.80;1.00;;;;;;;;;;5131740;27;20054;-70
2021/05/10 11:51:35;;;;;;;3.67;0.90;;;;;;;;;;5133042;27;20051;-70
2021/05/10 11:54:03;;;;;;;2.60;0.90;;;;;;;;;;5132792;27;20456;-71
2021/05/10 11:56:33;;;;;;;1.73;1.13;;;;;;;;;;5133592;27;20065;-70
2021/05/10 11:59:01;;;;;;;4.40;1.10;;;;;;;;;;5130695;27;20054;-70
2021/05/10 12:01:35;;;;;;;3.85;1.30;;;;;;;;;;5130563;27;20043;-70
2021/05/10 12:04:16;;;;;;;2.30;1.10;;;;;;;;;;5129367;27;20527;-70
2021/05/10 12:06:42;;;;;;;2.90;1.15;;;;;;;;;;5132740;27;20410;-69
2021/05/10 12:09:08;;;;;;;4.32;1.25;;;;;;;;;;5132866;27;20061;-69
2021/05/10 12:11:38;;;;;;;2.85;1.08;;;;;;;;;;5132308;27;20459;-69
2021/05/10 12:14:15;;;;;;;1.95;1.00;;;;;;;;;;5132896;27;20449;-69
2021/05/10 12:17:03;;;;;;;2.63;1.02;;;;;;;;;;5132228;27;20043;-69
2021/05/10 12:19:57;;;;;;;2.08;1.00;;;;;;;;;;5132061;27;20047;-69
2021/05/10 12:22:24;;;;;;;1.90;1.00;;;;;;;;;;5130164;27;20043;-69
2021/05/10 12:24:57;;;;;;;1.13;0.65;;;;;;;;;;5133032;27;20050;-70
2021/05/10 12:27:25;;;;;;;3.42;1.00;;;;;;;;;;5130280;27;20045;-69
2021/05/10 12:29:52;;;;;;;2.55;1.27;;;;;;;;;;5132720;27;20099;-69
2021/05/10 12:32:18;;;;;;;2.22;0.98;;;;;;;;;;5132726;27;20055;-69
2021/05/10 12:34:45;;;;;;;1.77;0.95;;;;;;;;;;5133587;27;20046;-69
2021/05/10 12:37:10;;;;;;;2.25;0.95;;;;;;;;;;5132466;27;20419;-69
2021/05/10 12:39:37;;;;;;;2.30;0.90;;;;;;;;;;5131915;27;20043;-70
2021/05/10 12:42:14;;;;;;;2.33;0.98;;;;;;;;;;5132949;27;20077;-70
2021/05/10 12:44:41;;;;;;;3.90;0.90;;;;;;;;;;5133561;27;20043;-70
2021/05/10 12:47:07;;;;;;;2.00;1.10;;;;;;;;;;5133713;27;20470;-70
2021/05/10 12:49:33;;;;;;;2.05;0.98;;;;;;;;;;5133412;27;20059;-70
2021/05/10 12:51:59;;;;;;;3.00;1.20;;;;;;;;;;5132420;27;20054;-70
2021/05/10 12:54:25;;;;;;;3.90;1.33;;;;;;;;;;5133191;27;20046;-70
2021/05/10 12:56:51;;;;;;;2.90;0.82;;;;;;;;;;5132343;27;20054;-70
2021/05/10 12:59:17;;;;;;;3.05;0.98;;;;;;;;;;5131351;27;20145;-70
2021/05/10 13:01:44;;;;;;;2.58;1.05;;;;;;;;;;5132740;27;20043;-70
2021/05/10 13:04:14;;;;;;;2.08;0.93;;;;;;;;;;5124541;27;20043;-70
2021/05/10 13:06:42;;;;;;;3.55;0.82;;;;;;;;;;5129436;27;20071;-70
2021/05/10 13:09:09;;;;;;;2.75;1.35;;;;;;;;;;5133442;27;20407;-69
2021/05/10 13:11:37;;;;;;;3.13;1.25;;;;;;;;;;5129115;27;20411;-71
2021/05/10 13:14:07;;;;;;;3.55;0.90;;;;;;;;;;5133454;28;20069;-68
2021/05/10 13:16:51;;;;;;;2.65;1.00;;;;;;;;;;5132648;28;20095;-70
2021/05/10 13:22:38;;;;;;;3.70;1.17;;;;;;;;;;5131738;28;20058;-70
2021/05/10 13:33:43;;;;;;;3.45;1.30;;;;;;;;;;5069025;28;20048;-69
2021/05/10 13:36:38;;;;;;;5.00;1.00;;;;;;;;;;5117871;28;20058;-70
2021/05/10 13:39:06;;;;;;;2.85;1.20;;;;;;;;;;5083067;28;20050;-70
2021/05/10 13:41:38;;;;;;;2.90;1.00;;;;;;;;;;5131524;28;20155;-69
2021/05/10 13:44:06;;;;;;;7.57;1.40;;;;;;;;;;5128615;28;20067;-70
2021/05/10 13:46:32;;;;;;;8.82;1.63;;;;;;;;;;5131460;28;20122;-70
2021/05/10 13:48:59;;;;;;;6.30;1.27;;;;;;;;;;5131327;28;20043;-70
2021/05/10 13:51:25;;;;;;;5.53;1.23;;;;;;;;;;5130584;28;20134;-70
2021/05/10 13:53:52;;;;;;;3.70;1.40;;;;;;;;;;5131460;28;20066;-69
2021/05/10 13:56:18;;;;;;;5.68;1.60;;;;;;;;;;5131426;28;20519;-69
2021/05/10 13:58:45;;;;;;;7.78;1.52;;;;;;;;;;5131760;28;20381;-69
2021/05/10 14:01:11;;;;;;;3.88;1.10;;;;;;;;;;5129125;28;20058;-69
2021/05/10 14:03:38;;;;;;;6.40;1.10;;;;;;;;;;5132017;27;20043;-69
2021/05/10 14:06:05;;;;;;;3.58;1.23;;;;;;;;;;5134774;27;20047;-70
2021/05/10 14:08:31;;;;;;;3.47;1.38;;;;;;;;;;5135170;27;20039;-70
2021/05/10 14:10:58;;;;;;;3.83;1.48;;;;;;;;;;5134941;27;20047;-70
2021/05/10 14:13:24;;;;;;;7.18;1.20;;;;;;;;;;5134962;27;20047;-69
2021/05/10 14:15:50;;;;;;;4.25;1.20;;;;;;;;;;5135193;27;20093;-71
2021/05/10 14:18:18;;;;;;;4.88;1.30;;;;;;;;;;5134817;27;20054;-70
2021/05/10 14:23:29;;;;;;;4.80;1.10;;;;;;;;;;5135381;27;20053;-70
2021/05/10 14:25:55;;;;;;;4.18;1.83;;;;;;;;;;5135426;27;20051;-71
2021/05/10 14:28:22;;;;;;;4.93;1.83;;;;;;;;;;5131738;27;20120;-70
2021/05/10 14:30:48;;;;;;;5.55;2.13;;;;;;;;;;5135144;27;20039;-70
2021/05/10 14:33:14;;;;;;;3.83;1.80;;;;;;;;;;5135042;27;20460;-70
2021/05/10 14:35:40;;;;;;;5.20;2.42;;;;;;;;;;5134698;27;20182;-71
2021/05/10 14:38:06;;;;;;;5.43;2.25;;;;;;;;;;5134896;27;20047;-70
2021/05/10 14:40:32;;;;;;;4.00;1.95;;;;;;;;;;5135257;27;20153;-70
2021/05/10 14:42:58;;;;;;;5.15;2.33;;;;;;;;;;5133205;27;20046;-69
2021/05/10 14:45:25;;;;;;;4.97;2.30;;;;;;;;;;5133984;27;20575;-70
2021/05/10 14:47:51;;;;;;;6.57;3.05;;;;;;;;;;5134783;27;20039;-70
2021/05/10 14:50:17;;;;;;;6.20;2.45;;;;;;;;;;5133660;27;21233;-70
2021/05/10 14:52:43;;;;;;;5.10;2.08;;;;;;;;;;5131614;27;20142;-69
2021/05/10 14:55:09;;;;;;;8.30;2.33;;;;;;;;;;5134424;27;20047;-69
2021/05/10 14:57:35;;;;;;;3.40;1.60;;;;;;;;;;5132427;27;20043;-69
2021/05/10 15:00:01;;;;;;;4.28;2.00;;;;;;;;;;5134295;27;20043;-68
2021/05/10 15:02:28;;;;;;;4.88;1.80;;;;;;;;;;5133958;27;20046;-70